createdAt,value
2018-06-28T00:01:30.812Z,99507.29
2018-06-28T00:03:59.499Z,99503.49
2018-06-28T00:06:28.283Z,99498.16
2018-06-28T00:08:57.095Z,99486.67
2018-06-28T00:11:25.796Z,99475.92
2018-06-28T00:13:54.615Z,99499.53
2018-06-28T00:16:23.362Z,99474.01
2018-06-28T00:18:52.099Z,99470.66
2018-06-28T00:21:20.864Z,99467.97
2018-06-28T00:23:49.585Z,99460.97
2018-06-28T00:26:18.372Z,99456.07
2018-06-28T00:28:47.067Z,99450.58
2018-06-28T00:31:15.899Z,99463.33
2018-06-28T00:33:44.575Z,99441.04
2018-06-28T00:36:13.373Z,99437.34
2018-06-28T00:38:42.094Z,99432.63
2018-06-28T00:41:10.871Z,99440.62
2018-06-28T00:43:39.585Z,99419.61
2018-06-28T00:46:08.368Z,99422.64
2018-06-28T00:48:37.038Z,99406.84
2018-06-28T00:51:05.786Z,99432.03
2018-06-28T00:53:34.563Z,99408.98
2018-06-28T00:56:03.460Z,99408.47
2018-06-28T00:58:32.265Z,99412.75
2018-06-28T01:01:01.008Z,99404.89
2018-06-28T01:03:29.785Z,99411.59
2018-06-28T01:05:58.559Z,99402.34
2018-06-28T01:08:27.297Z,99396.82
2018-06-28T01:10:56.070Z,99385.98
2018-06-28T01:13:25.057Z,99382.55
2018-06-28T01:15:53.823Z,99380.86
2018-06-28T01:18:22.491Z,99378.77
2018-06-28T01:20:51.209Z,99379.58
2018-06-28T01:23:19.954Z,99386.50
2018-06-28T01:25:48.661Z,99372.36
2018-06-28T01:28:17.412Z,99359.90
2018-06-28T01:30:46.140Z,99354.38
2018-06-28T01:33:15.245Z,99344.38
2018-06-28T01:35:44.007Z,99347.48
2018-06-28T01:38:12.733Z,99343.53
2018-06-28T01:40:41.481Z,99332.69
2018-06-28T01:43:37.226Z,99330.20
2018-06-28T01:46:06.085Z,99344.91
2018-06-28T01:48:34.820Z,99318.54
2018-06-28T01:51:03.640Z,99325.91
2018-06-28T01:53:32.382Z,99327.64
2018-06-28T01:58:35.191Z,99312.36
2018-06-28T02:01:04.040Z,99312.16
2018-06-28T02:03:32.755Z,99293.78
2018-06-28T02:06:01.531Z,99306.84
2018-06-28T02:08:30.231Z,99308.46
2018-06-28T02:10:58.864Z,99300.40
2018-06-28T02:13:27.589Z,99298.54
2018-06-28T02:15:56.229Z,99293.23
2018-06-28T02:18:25.010Z,99297.73
2018-06-28T02:20:53.832Z,99291.56
2018-06-28T02:23:22.538Z,99280.41
2018-06-28T02:25:51.249Z,99280.33
2018-06-28T02:28:20.065Z,99287.58
2018-06-28T02:30:48.804Z,99272.98
2018-06-28T02:33:17.590Z,99268.42
2018-06-28T02:35:46.384Z,99274.66
2018-06-28T02:38:15.371Z,99262.20
2018-06-28T02:40:44.274Z,99276.08
2018-06-28T02:43:12.987Z,99266.44
2018-06-28T02:45:41.720Z,99258.34
2018-06-28T02:48:10.427Z,99263.18
2018-06-28T02:50:39.152Z,99257.84
2018-06-28T02:53:07.863Z,99248.36
2018-06-28T02:55:36.620Z,99246.10
2018-06-28T02:58:05.351Z,99257.77
2018-06-28T03:00:34.055Z,99254.02
2018-06-28T03:03:02.740Z,99249.66
2018-06-28T03:05:31.600Z,99228.16
2018-06-28T03:08:00.318Z,99237.88
2018-06-28T03:10:29.401Z,99226.80
2018-06-28T03:12:58.135Z,99232.08
2018-06-28T03:15:26.893Z,99223.58
2018-06-28T03:17:55.611Z,99217.66
2018-06-28T03:20:24.346Z,99221.38
2018-06-28T03:22:53.082Z,99208.16
2018-06-28T03:25:21.815Z,99204.88
2018-06-28T03:27:50.542Z,99203.70
2018-06-28T03:30:19.242Z,99200.75
2018-06-28T03:32:48.011Z,99204.33
2018-06-28T03:35:16.803Z,99205.49
2018-06-28T03:37:45.511Z,99196.45
2018-06-28T03:40:14.311Z,99202.41
2018-06-28T03:42:43.063Z,99196.45
2018-06-28T03:45:11.839Z,99192.22
2018-06-28T03:47:40.542Z,99196.41
2018-06-28T03:50:09.287Z,99190.67
2018-06-28T03:52:38.000Z,99199.04
2018-06-28T03:55:06.784Z,99179.77
2018-06-28T03:57:35.611Z,99189.24
2018-06-28T04:00:05.100Z,99183.95
2018-06-28T04:02:33.906Z,99180.39
2018-06-28T04:05:02.695Z,99186.61
2018-06-28T04:07:31.488Z,99191.06
2018-06-28T04:10:00.412Z,99169.25
2018-06-28T04:12:29.355Z,99172.81
2018-06-28T04:14:58.129Z,99178.88
2018-06-28T04:17:26.898Z,99167.41
2018-06-28T04:19:55.745Z,99161.92
2018-06-28T04:22:28.722Z,99159.71
2018-06-28T04:24:57.624Z,99161.08
2018-06-28T04:27:26.910Z,99150.68
2018-06-28T04:29:55.639Z,99151.26
2018-06-28T04:32:24.663Z,99152.37
2018-06-28T04:34:53.439Z,99154.87
2018-06-28T04:37:22.157Z,99149.27
2018-06-28T04:39:50.930Z,99135.07
2018-06-28T04:42:20.007Z,99156.55
2018-06-28T04:44:48.673Z,99135.16
2018-06-28T04:47:18.982Z,99140.50
2018-06-28T04:49:49.172Z,99135.02
2018-06-28T04:52:18.025Z,99131.33
2018-06-28T04:54:46.690Z,99130.67
2018-06-28T04:57:15.359Z,99133.97
2018-06-28T04:59:44.355Z,99129.86
2018-06-28T05:02:13.051Z,99119.41
2018-06-28T05:04:41.765Z,99118.70
2018-06-28T05:07:10.953Z,99125.41
2018-06-28T05:09:39.556Z,99121.54
2018-06-28T05:12:08.313Z,99122.56
2018-06-28T05:14:37.328Z,99114.06
2018-06-28T05:17:06.043Z,99106.11
2018-06-28T05:19:34.713Z,99110.83
2018-06-28T05:22:03.424Z,99111.32
2018-06-28T05:24:32.158Z,99111.94
2018-06-28T05:27:01.111Z,99112.38
2018-06-28T05:29:29.899Z,99107.01
2018-06-28T05:31:58.610Z,99102.77
2018-06-28T05:34:27.371Z,99106.08
2018-06-28T05:36:58.493Z,99102.69
2018-06-28T05:39:27.402Z,99098.55
2018-06-28T05:41:56.122Z,99101.53
2018-06-28T05:44:24.954Z,99104.03
2018-06-28T05:46:53.641Z,99092.59
2018-06-28T05:49:22.438Z,99095.80
2018-06-28T05:51:51.102Z,99100.69
2018-06-28T05:54:19.879Z,99107.19
2018-06-28T05:56:48.864Z,99100.47
2018-06-28T05:59:17.506Z,99098.69
2018-06-28T06:01:46.319Z,99098.38
2018-06-28T06:04:15.021Z,99098.02
2018-06-28T06:06:44.160Z,99100.52
2018-06-28T06:09:12.895Z,99109.36
2018-06-28T06:11:41.663Z,99107.76
2018-06-28T06:14:10.510Z,99101.62
2018-06-28T06:16:39.232Z,99093.26
2018-06-28T06:19:08.052Z,99091.73
2018-06-28T06:21:36.807Z,99100.54
2018-06-28T06:24:05.567Z,99103.76
2018-06-28T06:26:34.221Z,99104.91
2018-06-28T06:29:02.947Z,99099.39
2018-06-28T06:31:31.706Z,99098.33
2018-06-28T06:34:00.463Z,99110.34
2018-06-28T06:36:29.827Z,99105.43
2018-06-28T06:38:58.490Z,99106.38
2018-06-28T06:41:27.219Z,99101.92
2018-06-28T06:43:56.039Z,99102.23
2018-06-28T06:46:24.765Z,99098.61
2018-06-28T06:48:53.546Z,99089.04
2018-06-28T06:51:22.490Z,99091.12
2018-06-28T06:53:52.675Z,99094.37
2018-06-28T06:56:21.895Z,99087.61
2018-06-28T06:58:50.778Z,99093.95
2018-06-28T07:01:19.504Z,99098.72
2018-06-28T07:03:48.220Z,99092.13
2018-06-28T07:06:17.155Z,99091.98
2018-06-28T07:08:47.167Z,99088.25
2018-06-28T07:11:15.925Z,99088.80
2018-06-28T07:13:44.642Z,99086.53
2018-06-28T07:16:13.968Z,99099.53
2018-06-28T07:18:42.666Z,99086.31
2018-06-28T07:21:11.327Z,99090.85
2018-06-28T07:23:39.935Z,99085.52
2018-06-28T07:26:08.627Z,99088.72
2018-06-28T07:28:37.325Z,99092.16
2018-06-28T07:31:06.182Z,99090.72
2018-06-28T07:33:34.883Z,99090.28
2018-06-28T07:36:03.530Z,99095.36
2018-06-28T07:38:32.188Z,99083.58
2018-06-28T07:41:00.836Z,99082.14
2018-06-28T07:43:29.493Z,99077.03
2018-06-28T07:45:58.189Z,99085.63
2018-06-28T07:48:26.877Z,99082.84
2018-06-28T07:50:55.648Z,99089.60
2018-06-28T07:53:24.287Z,99079.27
2018-06-28T07:55:52.987Z,99078.27
2018-06-28T07:58:21.723Z,99079.11
2018-06-28T08:00:50.376Z,99072.64
2018-06-28T08:03:19.074Z,99077.58
2018-06-28T08:05:47.710Z,99079.61
2018-06-28T08:08:16.352Z,99079.28
2018-06-28T08:10:45.013Z,99078.54
2018-06-28T08:13:14.459Z,99078.77
2018-06-28T08:15:43.090Z,99076.09
2018-06-28T08:18:11.755Z,99083.80
2018-06-28T08:20:40.511Z,99075.09
2018-06-28T08:23:09.225Z,99083.02
2018-06-28T08:25:37.937Z,99081.59
2018-06-28T08:28:06.648Z,99074.58
2018-06-28T08:30:36.011Z,99081.95
2018-06-28T08:33:04.727Z,99082.58
2018-06-28T08:35:33.419Z,99075.41
2018-06-28T08:38:02.192Z,99075.56
2018-06-28T08:40:30.896Z,99074.04
2018-06-28T08:42:59.677Z,99070.52
2018-06-28T08:45:28.366Z,99077.75
2018-06-28T08:47:57.073Z,99075.45
2018-06-28T08:50:25.760Z,99081.03
2018-06-28T08:52:54.515Z,99079.58
2018-06-28T08:55:23.189Z,99081.22
2018-06-28T08:57:51.858Z,99079.05
2018-06-28T09:00:20.571Z,99080.53
2018-06-28T09:02:49.321Z,99080.92
2018-06-28T09:05:17.986Z,99088.09
2018-06-28T09:07:46.700Z,99091.48
2018-06-28T09:10:15.463Z,99084.45
2018-06-28T09:12:44.320Z,99080.55
2018-06-28T09:15:13.057Z,99081.41
2018-06-28T09:17:44.705Z,99085.91
2018-06-28T09:20:13.613Z,99087.26
2018-06-28T09:22:42.744Z,99084.83
2018-06-28T09:25:11.423Z,99086.56
2018-06-28T09:27:40.202Z,99077.88
2018-06-28T09:30:09.333Z,99080.44
2018-06-28T09:32:38.130Z,99087.23
2018-06-28T09:35:06.906Z,99078.70
2018-06-28T09:37:35.582Z,99088.86
2018-06-28T09:40:04.403Z,99091.17
2018-06-28T09:42:33.154Z,99090.52
2018-06-28T09:45:01.879Z,99079.27
2018-06-28T09:47:30.667Z,99087.83
2018-06-28T09:49:59.394Z,99082.32
2018-06-28T09:52:28.099Z,99086.16
2018-06-28T09:54:57.139Z,99083.14
2018-06-28T09:57:25.908Z,99086.20
2018-06-28T09:59:54.587Z,99094.14
2018-06-28T10:02:23.395Z,99088.33
2018-06-28T10:04:52.187Z,99086.84
2018-06-28T10:07:20.833Z,99079.77
2018-06-28T10:09:49.538Z,99084.73
2018-06-28T10:12:18.243Z,99088.42
2018-06-28T10:14:47.031Z,99081.92
2018-06-28T10:17:15.687Z,99089.31
2018-06-28T10:19:44.358Z,99093.61
2018-06-28T10:22:13.054Z,99086.91
2018-06-28T10:24:41.875Z,99080.55
2018-06-28T10:27:10.669Z,99075.92
2018-06-28T10:29:39.436Z,99075.27
2018-06-28T10:32:08.227Z,99076.58
2018-06-28T10:34:37.041Z,99087.52
2018-06-28T10:37:06.055Z,99076.97
2018-06-28T10:39:34.940Z,99078.60
2018-06-28T10:42:03.707Z,99081.92
2018-06-28T10:44:32.435Z,99087.61
2018-06-28T10:47:01.260Z,99087.51
2018-06-28T10:49:29.864Z,99087.17
2018-06-28T10:51:58.574Z,99085.97
2018-06-28T10:54:27.306Z,99082.33
2018-06-28T10:56:56.010Z,99083.05
2018-06-28T10:59:24.671Z,99077.09
2018-06-28T11:01:53.467Z,99071.81
2018-06-28T11:04:22.144Z,99074.93
2018-06-28T11:06:50.842Z,99077.34
2018-06-28T11:09:19.552Z,99076.83
2018-06-28T11:11:48.227Z,99074.22
2018-06-28T11:14:16.909Z,99074.94
2018-06-28T11:16:45.577Z,99072.81
2018-06-28T11:19:14.296Z,99078.53
2018-06-28T11:21:42.973Z,99079.02
2018-06-28T11:24:11.691Z,99082.62
2018-06-28T11:26:40.422Z,99081.34
2018-06-28T11:29:09.059Z,99084.00
2018-06-28T11:31:37.760Z,99081.91
2018-06-28T11:34:06.747Z,99082.20
2018-06-28T11:36:35.712Z,99089.02
2018-06-28T11:39:06.372Z,99076.59
2018-06-28T11:41:35.099Z,99077.46
2018-06-28T11:44:03.892Z,99081.64
2018-06-28T11:46:32.867Z,99078.57
2018-06-28T11:49:01.597Z,99071.66
2018-06-28T11:51:31.315Z,99082.95
2018-06-28T11:54:00.096Z,99081.16
2018-06-28T11:56:28.798Z,99082.95
2018-06-28T11:58:57.596Z,99079.98
2018-06-28T12:01:26.363Z,99082.86
2018-06-28T12:03:55.128Z,99079.39
2018-06-28T12:06:23.924Z,99081.04
2018-06-28T12:08:52.663Z,99079.16
2018-06-28T12:11:21.503Z,99072.68
2018-06-28T12:13:50.355Z,99078.60
2018-06-28T12:16:19.120Z,99077.48
2018-06-28T12:18:47.850Z,99083.53
2018-06-28T12:21:16.618Z,99073.94
2018-06-28T12:23:45.431Z,99070.24
2018-06-28T12:26:14.284Z,99065.38
2018-06-28T12:28:43.111Z,99077.61
2018-06-28T12:31:11.992Z,99078.98
2018-06-28T12:33:40.622Z,99079.92
2018-06-28T12:36:09.491Z,99083.12
2018-06-28T12:38:38.339Z,99077.08
2018-06-28T12:41:07.183Z,99076.17
2018-06-28T12:43:35.950Z,99077.11
2018-06-28T12:46:05.227Z,99076.41
2018-06-28T12:48:34.033Z,99088.07
2018-06-28T12:51:02.908Z,99091.24
2018-06-28T12:53:31.633Z,99088.27
2018-06-28T12:56:18.504Z,99086.27
2018-06-28T12:58:47.318Z,99085.78
2018-06-28T13:01:16.186Z,99083.06
2018-06-28T13:03:45.037Z,99090.96
2018-06-28T13:06:13.831Z,99088.96
2018-06-28T13:08:42.592Z,99082.79
2018-06-28T13:11:11.351Z,99083.45
2018-06-28T13:13:41.060Z,99086.37
2018-06-28T13:16:11.080Z,99073.86
2018-06-28T13:18:39.976Z,99078.23
2018-06-28T13:21:08.864Z,99084.75
2018-06-28T13:23:37.767Z,99090.58
2018-06-28T13:26:06.691Z,99088.45
2018-06-28T13:28:35.596Z,99086.02
2018-06-28T13:31:05.311Z,99080.34
2018-06-28T13:33:34.099Z,99088.45
2018-06-28T13:36:03.153Z,99083.14
2018-06-28T13:38:32.083Z,99079.44
2018-06-28T13:41:01.024Z,99081.28
2018-06-28T13:43:29.956Z,99071.30
2018-06-28T13:45:58.882Z,99079.76
2018-06-28T13:48:27.697Z,99077.20
2018-06-28T13:50:56.554Z,99074.33
2018-06-28T13:53:25.323Z,99068.03
2018-06-28T13:55:54.079Z,99078.78
2018-06-28T13:58:22.864Z,99071.34
2018-06-28T14:00:51.626Z,99069.19
2018-06-28T14:03:20.415Z,99066.68
2018-06-28T14:05:49.295Z,99059.87
2018-06-28T14:08:18.036Z,99072.03
2018-06-28T14:10:46.760Z,99064.47
2018-06-28T14:15:49.546Z,99065.31
2018-06-28T14:18:18.331Z,99071.30
2018-06-28T14:20:47.024Z,99060.83
2018-06-28T14:23:15.784Z,99049.39
2018-06-28T14:25:44.573Z,99062.80
2018-06-28T14:28:13.398Z,99055.66
2018-06-28T14:30:42.175Z,99040.51
2018-06-28T14:33:10.948Z,99046.81
2018-06-28T14:35:39.754Z,99045.98
2018-06-28T14:38:08.480Z,99035.63
2018-06-28T14:40:37.187Z,99031.81
2018-06-28T14:43:06.298Z,99041.47
2018-06-28T14:45:35.066Z,99042.79
2018-06-28T14:48:03.876Z,99037.38
2018-06-28T14:50:32.788Z,99040.31
2018-06-28T14:53:01.595Z,99035.09
2018-06-28T14:55:30.410Z,99036.17
2018-06-28T14:57:59.230Z,99032.29
2018-06-28T15:00:28.380Z,99033.14
2018-06-28T15:02:57.170Z,99029.68
2018-06-28T15:05:25.991Z,99021.53
2018-06-28T15:07:54.887Z,99023.88
2018-06-28T15:10:23.602Z,99022.71
2018-06-28T15:12:52.494Z,99030.06
2018-06-28T15:15:21.359Z,99027.41
2018-06-28T15:17:50.160Z,99023.39
2018-06-28T15:20:18.926Z,99025.87
2018-06-28T15:22:47.752Z,99030.66
2018-06-28T15:25:16.521Z,99027.87
2018-06-28T15:27:45.397Z,99042.86
2018-06-28T15:30:14.171Z,99039.55
2018-06-28T15:32:42.924Z,99039.02
2018-06-28T15:35:12.592Z,99042.10
2018-06-28T15:37:41.387Z,99046.73
2018-06-28T15:40:10.212Z,99041.52
2018-06-28T15:42:39.024Z,99067.88
2018-06-28T15:45:07.923Z,99049.20
2018-06-28T15:47:36.679Z,99046.33
2018-06-28T15:50:05.942Z,99047.99
2018-06-28T15:52:34.756Z,99053.34
2018-06-28T15:55:03.665Z,99051.98
2018-06-28T15:57:32.576Z,99045.20
2018-06-28T16:00:01.374Z,99056.02
2018-06-28T16:02:30.141Z,99066.21
2018-06-28T16:04:58.903Z,99060.99
2018-06-28T16:07:27.634Z,99063.70
2018-06-28T16:09:56.363Z,99067.89
2018-06-28T16:12:25.208Z,99061.95
2018-06-28T16:14:53.966Z,99051.22
2018-06-28T16:17:22.706Z,99056.36
2018-06-28T16:19:51.442Z,99049.52
2018-06-28T16:22:20.139Z,99057.06
2018-06-28T16:24:48.852Z,99047.24
2018-06-28T16:27:17.651Z,99059.32
2018-06-28T16:29:46.375Z,99059.32
2018-06-28T16:32:15.116Z,99051.77
2018-06-28T16:34:43.803Z,99064.98
2018-06-28T16:37:12.612Z,99052.37
2018-06-28T16:39:41.335Z,99052.39
2018-06-28T16:42:10.104Z,99052.05
2018-06-28T16:44:39.007Z,99053.99
2018-06-28T16:47:07.956Z,99050.72
2018-06-28T16:49:36.768Z,99052.02
2018-06-28T16:52:06.284Z,99066.58
2018-06-28T16:54:35.078Z,99069.17
2018-06-28T16:57:03.845Z,99068.45
2018-06-28T16:59:32.597Z,99070.20
2018-06-28T17:02:01.307Z,99071.80
2018-06-28T17:04:30.093Z,99076.80
2018-06-28T17:06:58.938Z,99081.73
2018-06-28T17:09:27.680Z,99079.86
2018-06-28T17:11:56.463Z,99089.95
2018-06-28T17:14:25.289Z,99084.68
2018-06-28T17:16:54.041Z,99077.05
2018-06-28T17:19:22.818Z,99079.11
2018-06-28T17:21:51.616Z,99077.81
2018-06-28T17:24:20.380Z,99080.95
2018-06-28T17:26:49.212Z,99084.66
2018-06-28T17:29:17.949Z,99083.36
2018-06-28T17:31:46.704Z,99077.86
2018-06-28T17:34:15.440Z,99077.86
2018-06-28T17:36:44.216Z,99070.83
2018-06-28T17:39:13.007Z,99076.64
2018-06-28T17:41:41.858Z,99072.97
2018-06-28T17:44:10.658Z,99067.73
2018-06-28T17:46:39.487Z,99071.55
2018-06-28T17:49:08.260Z,99062.64
2018-06-28T17:51:36.989Z,99067.77
2018-06-28T17:54:06.067Z,99071.25
2018-06-28T17:56:34.916Z,99070.90
2018-06-28T17:59:03.661Z,99081.30
2018-06-28T18:01:32.465Z,99076.86
2018-06-28T18:04:01.260Z,99070.06
2018-06-28T18:06:30.031Z,99062.11
2018-06-28T18:09:00.029Z,99067.12
2018-06-28T18:11:28.687Z,99059.78
2018-06-28T18:13:57.470Z,99059.56
2018-06-28T18:16:26.252Z,99062.35
2018-06-28T18:18:55.067Z,99062.45
2018-06-28T18:21:23.959Z,99064.68
2018-06-28T18:23:53.067Z,99054.02
2018-06-28T18:26:21.911Z,99059.59
2018-06-28T18:28:50.709Z,99054.43
2018-06-28T18:31:19.467Z,99047.74
2018-06-28T18:33:48.359Z,99046.44
2018-06-28T18:36:17.436Z,99040.78
2018-06-28T18:38:46.365Z,99068.36
2018-06-28T18:41:15.456Z,99053.31
2018-06-28T18:43:44.393Z,99060.94
2018-06-28T18:46:13.348Z,99051.11
2018-06-28T18:48:42.492Z,99055.93
2018-06-28T18:51:11.260Z,99054.81
2018-06-28T18:53:40.250Z,99057.34
2018-06-28T18:56:09.041Z,99059.39
2018-06-28T18:58:37.783Z,99061.88
2018-06-28T19:01:06.640Z,99061.14
2018-06-28T19:03:35.606Z,99072.64
2018-06-28T19:06:04.294Z,99083.54
2018-06-28T19:08:33.075Z,99096.52
2018-06-28T19:11:01.828Z,99105.62
2018-06-28T19:13:30.614Z,99101.73
2018-06-28T19:16:04.553Z,99099.72
2018-06-28T19:18:33.522Z,99106.21
2018-06-28T19:21:07.312Z,99114.08
2018-06-28T19:23:41.429Z,99109.17
2018-06-28T19:26:10.370Z,99116.95
2018-06-28T19:28:45.547Z,99120.92
2018-06-28T19:31:19.470Z,99116.83
2018-06-28T19:33:48.737Z,99121.66
2018-06-28T19:36:17.783Z,99138.63
2018-06-28T19:38:51.661Z,99134.36
2018-06-28T19:41:25.802Z,99141.16
2018-06-28T19:43:54.694Z,99145.51
2018-06-28T19:46:23.596Z,99165.89
2018-06-28T19:48:52.629Z,99153.30
2018-06-28T19:51:26.703Z,99151.72
2018-06-28T19:53:55.616Z,99149.72
2018-06-28T19:56:24.480Z,99146.18
2018-06-28T19:58:53.446Z,99145.91
2018-06-28T20:01:28.065Z,99149.41
2018-06-28T20:04:02.009Z,99145.69
2018-06-28T20:06:30.739Z,99144.48
2018-06-28T20:08:59.419Z,99146.70
2018-06-28T20:11:28.445Z,99143.65
2018-06-28T20:14:02.257Z,99141.89
2018-06-28T20:16:36.058Z,99133.44
2018-06-28T20:19:09.902Z,99133.16
2018-06-28T20:21:38.610Z,99131.03
2018-06-28T20:24:07.747Z,99131.79
2018-06-28T20:26:41.423Z,99130.21
2018-06-28T20:29:15.093Z,99119.38
2018-06-28T20:31:48.848Z,99123.44
2018-06-28T20:34:17.536Z,99128.68
2018-06-28T20:36:46.253Z,99127.69
2018-06-28T20:39:14.924Z,99125.02
2018-06-28T20:41:44.146Z,99133.39
2018-06-28T20:44:13.303Z,99122.88
2018-06-28T20:46:42.006Z,99122.59
2018-06-28T20:49:10.669Z,99122.32
2018-06-28T20:51:39.426Z,99120.28
2018-06-28T20:54:13.567Z,99122.52
2018-06-28T20:56:42.262Z,99124.47
2018-06-28T20:59:10.914Z,99130.31
2018-06-28T21:01:39.656Z,99126.77
2018-06-28T21:04:08.409Z,99132.91
2018-06-28T21:06:37.277Z,99124.56
2018-06-28T21:09:07.762Z,99129.09
2018-06-28T21:11:36.415Z,99123.06
2018-06-28T21:14:05.160Z,99119.91
2018-06-28T21:16:34.877Z,99112.44
2018-06-28T21:19:04.175Z,99105.06
2018-06-28T21:21:32.867Z,99091.33
2018-06-28T21:24:01.709Z,99090.80
2018-06-28T21:26:30.418Z,99086.56
2018-06-28T21:28:59.147Z,99086.13
2018-06-28T21:31:27.867Z,99072.77
2018-06-28T21:33:56.562Z,99088.20
2018-06-28T21:36:25.261Z,99092.55
2018-06-28T21:38:53.979Z,99080.89
2018-06-28T21:41:22.791Z,99083.72
2018-06-28T21:43:51.449Z,99080.17
2018-06-28T21:46:20.503Z,99076.19
2018-06-28T21:48:49.231Z,99082.49
2018-06-28T21:51:17.997Z,99082.42
2018-06-28T21:53:46.671Z,99078.78
2018-06-28T21:56:15.369Z,99081.27
2018-06-28T21:58:44.043Z,99073.52
2018-06-28T22:01:12.728Z,99086.01
2018-06-28T22:03:41.420Z,99092.78
2018-06-28T22:06:10.098Z,99083.23
2018-06-28T22:08:38.775Z,99087.13
2018-06-28T22:11:07.517Z,99094.25
2018-06-28T22:13:36.302Z,99076.64
2018-06-28T22:16:05.257Z,99086.64
2018-06-28T22:18:33.945Z,99089.97
2018-06-28T22:21:02.621Z,99093.62
2018-06-28T22:23:31.408Z,99096.77
2018-06-28T22:26:00.176Z,99098.88
2018-06-28T22:28:28.841Z,99093.06
2018-06-28T22:30:57.519Z,99099.62
2018-06-28T22:33:27.837Z,99089.06
2018-06-28T22:35:56.545Z,99079.52
2018-06-28T22:38:25.238Z,99074.23
2018-06-28T22:40:53.902Z,99072.94
2018-06-28T22:43:22.730Z,99071.25
2018-06-28T22:45:51.391Z,99070.72
2018-06-28T22:48:20.081Z,99066.06
2018-06-28T22:50:48.867Z,99057.00
2018-06-28T22:53:17.591Z,99076.09
2018-06-28T22:55:46.309Z,99058.77
2018-06-28T22:58:15.005Z,99047.45
2018-06-28T23:00:43.692Z,99048.81
2018-06-28T23:03:12.418Z,99057.37
2018-06-28T23:05:41.090Z,99051.16
2018-06-28T23:08:09.845Z,99054.47
2018-06-28T23:10:38.552Z,99050.11
2018-06-28T23:13:07.218Z,99052.92
2018-06-28T23:15:35.904Z,99049.95
2018-06-28T23:18:04.606Z,99055.71
2018-06-28T23:20:33.243Z,99059.33
2018-06-28T23:23:01.906Z,99062.38
2018-06-28T23:25:30.707Z,99056.35
2018-06-28T23:27:59.470Z,99052.10
2018-06-28T23:30:28.133Z,99051.80
2018-06-28T23:32:56.836Z,99048.56
2018-06-28T23:35:25.476Z,99043.94
2018-06-28T23:37:54.363Z,99033.84
2018-06-28T23:40:23.082Z,99035.48
2018-06-28T23:42:52.371Z,99028.64
2018-06-28T23:45:21.092Z,99030.50
2018-06-28T23:47:49.903Z,99036.61
2018-06-28T23:50:18.452Z,99029.56
2018-06-28T23:52:47.130Z,99027.90
2018-06-28T23:55:15.841Z,99025.59
2018-06-28T23:57:44.556Z,99025.05
